createdAt,value
2022-11-28T00:01:34.756Z,21.40
2022-11-28T00:04:01.722Z,21.30
2022-11-28T00:06:28.824Z,21.20
2022-11-28T00:08:57.352Z,21.20
2022-11-28T00:11:24.192Z,21.20
2022-11-28T00:13:51.192Z,21.20
2022-11-28T00:16:21.524Z,21.20
2022-11-28T00:18:52.013Z,21.20
2022-11-28T00:21:18.985Z,21.20
2022-11-28T00:23:46.193Z,21.20
2022-11-28T00:26:14.598Z,21.20
2022-11-28T00:28:41.474Z,21.20
2022-11-28T00:31:12.278Z,21.20
2022-11-28T00:33:39.060Z,21.10
2022-11-28T00:36:06.064Z,21.20
2022-11-28T00:38:32.822Z,21.20
2022-11-28T00:41:00.606Z,21.20
2022-11-28T00:43:27.804Z,21.10
2022-11-28T00:45:54.758Z,21.20
2022-11-28T00:48:21.790Z,21.10
2022-11-28T00:50:48.572Z,21.10
2022-11-28T00:53:15.338Z,21.10
2022-11-28T00:55:42.086Z,21.10
2022-11-28T00:58:08.848Z,21.10
2022-11-28T01:00:35.954Z,21.10
2022-11-28T01:03:02.669Z,21.00
2022-11-28T01:05:29.433Z,21.10
2022-11-28T01:07:56.176Z,21.10
2022-11-28T01:10:23.043Z,21.10
2022-11-28T01:12:49.764Z,21.00
2022-11-28T01:15:16.571Z,21.00
2022-11-28T01:17:43.300Z,21.00
2022-11-28T01:20:10.254Z,21.00
2022-11-28T01:22:37.041Z,21.00
2022-11-28T01:25:03.852Z,21.00
2022-11-28T01:27:30.611Z,20.90
2022-11-28T01:29:57.339Z,20.90
2022-11-28T01:32:24.113Z,20.90
2022-11-28T01:34:50.809Z,20.90
2022-11-28T01:37:17.531Z,20.90
2022-11-28T01:39:44.302Z,20.90
2022-11-28T01:42:20.416Z,20.90
2022-11-28T01:44:49.919Z,20.90
2022-11-28T01:47:18.275Z,20.90
2022-11-28T01:49:45.040Z,20.90
2022-11-28T01:52:13.112Z,20.90
2022-11-28T01:54:39.958Z,20.90
2022-11-28T01:57:08.402Z,20.90
2022-11-28T01:59:35.934Z,20.90
2022-11-28T02:02:07.749Z,20.90
2022-11-28T02:04:34.630Z,20.90
2022-11-28T02:07:01.411Z,20.80
2022-11-28T02:09:28.167Z,20.90
2022-11-28T02:12:03.724Z,20.80
2022-11-28T02:14:39.527Z,20.90
2022-11-28T02:17:09.141Z,20.90
2022-11-28T02:19:42.751Z,20.90
2022-11-28T02:22:13.102Z,20.90
2022-11-28T02:24:43.014Z,20.90
2022-11-28T02:27:13.139Z,20.90
2022-11-28T02:29:51.843Z,20.90
2022-11-28T02:32:21.943Z,20.90
2022-11-28T02:34:54.979Z,20.90
2022-11-28T02:37:24.799Z,20.80
2022-11-28T02:40:03.947Z,20.80
2022-11-28T02:42:33.351Z,20.80
2022-11-28T02:45:20.841Z,20.80
2022-11-28T02:47:51.209Z,20.80
2022-11-28T02:50:22.593Z,20.80
2022-11-28T02:52:50.303Z,20.80
2022-11-28T02:55:17.047Z,20.70
2022-11-28T02:57:47.506Z,20.70
2022-11-28T03:00:28.442Z,20.70
2022-11-28T03:03:09.618Z,20.70
2022-11-28T03:05:42.451Z,20.80
2022-11-28T03:08:09.229Z,20.70
2022-11-28T03:10:45.716Z,20.80
2022-11-28T03:13:31.027Z,20.70
2022-11-28T03:16:12.751Z,20.70
2022-11-28T03:18:40.367Z,20.70
2022-11-28T03:21:12.044Z,20.70
2022-11-28T03:24:11.231Z,20.70
2022-11-28T03:26:45.285Z,20.70
2022-11-28T03:29:18.182Z,20.70
2022-11-28T03:31:49.929Z,20.70
2022-11-28T03:34:17.872Z,20.70
2022-11-28T03:36:46.086Z,20.70
2022-11-28T03:39:14.374Z,20.70
2022-11-28T03:41:42.939Z,20.60
2022-11-28T03:44:16.026Z,20.60
2022-11-28T03:46:44.802Z,20.60
2022-11-28T03:49:11.768Z,20.60
2022-11-28T03:51:46.611Z,20.60
2022-11-28T03:54:17.452Z,20.60
2022-11-28T03:56:52.235Z,20.60
2022-11-28T03:59:33.312Z,20.60
2022-11-28T04:02:14.882Z,20.60
2022-11-28T04:04:45.438Z,20.60
2022-11-28T04:07:30.488Z,20.50
2022-11-28T04:10:00.212Z,20.50
2022-11-28T04:12:32.397Z,20.50
2022-11-28T04:15:13.176Z,20.50
2022-11-28T04:17:44.335Z,20.50
2022-11-28T04:20:15.486Z,20.50
2022-11-28T04:22:46.486Z,20.50
2022-11-28T04:25:14.979Z,20.40
2022-11-28T04:27:42.964Z,20.50
2022-11-28T04:30:10.029Z,20.40
2022-11-28T04:32:37.672Z,20.40
2022-11-28T04:35:05.890Z,20.40
2022-11-28T04:37:32.682Z,20.40
2022-11-28T04:39:59.422Z,20.40
2022-11-28T04:42:44.991Z,20.40
2022-11-28T04:45:15.453Z,20.40
2022-11-28T04:47:42.638Z,20.40
2022-11-28T04:50:09.546Z,20.40
2022-11-28T04:52:47.028Z,20.40
2022-11-28T04:55:18.459Z,20.40
2022-11-28T04:57:45.988Z,20.30
2022-11-28T05:00:13.532Z,20.30
2022-11-28T05:02:40.726Z,20.30
2022-11-28T05:05:08.787Z,20.30
2022-11-28T05:07:35.630Z,20.30
2022-11-28T05:10:02.454Z,20.30
2022-11-28T05:12:29.189Z,20.30
2022-11-28T05:14:55.904Z,20.30
2022-11-28T05:17:22.611Z,20.30
2022-11-28T05:19:49.432Z,20.30
2022-11-28T05:22:16.247Z,20.20
2022-11-28T05:24:43.114Z,20.20
2022-11-28T05:27:11.472Z,20.20
2022-11-28T05:29:38.196Z,20.20
2022-11-28T05:32:05.031Z,20.20
2022-11-28T05:34:31.920Z,20.20
2022-11-28T05:36:58.710Z,20.20
2022-11-28T05:39:26.903Z,20.20
2022-11-28T05:41:54.799Z,20.20
2022-11-28T05:44:25.527Z,20.20
2022-11-28T05:46:53.744Z,20.20
2022-11-28T05:49:21.678Z,20.20
2022-11-28T05:51:48.859Z,20.10
2022-11-28T05:54:15.582Z,20.10
2022-11-28T05:56:42.603Z,20.10
2022-11-28T05:59:09.474Z,20.10
2022-11-28T06:01:36.278Z,20.10
2022-11-28T06:04:03.128Z,20.10
2022-11-28T06:06:30.734Z,20.10
2022-11-28T06:08:57.497Z,20.10
2022-11-28T06:11:25.263Z,20.10
2022-11-28T06:13:52.218Z,20.10
2022-11-28T06:16:20.390Z,20.10
2022-11-28T06:18:47.235Z,20.10
2022-11-28T06:21:14.611Z,20.10
2022-11-28T06:23:41.509Z,20.10
2022-11-28T06:26:09.322Z,20.00
2022-11-28T06:28:36.104Z,20.00
2022-11-28T06:31:02.840Z,20.00
2022-11-28T06:33:29.721Z,20.00
2022-11-28T06:36:04.121Z,20.00
2022-11-28T06:38:30.895Z,20.00
2022-11-28T06:40:58.119Z,20.00
2022-11-28T06:43:24.964Z,20.00
2022-11-28T06:45:51.873Z,20.00
2022-11-28T06:48:18.963Z,20.00
2022-11-28T06:50:45.863Z,20.00
2022-11-28T06:53:12.982Z,20.00
2022-11-28T06:55:39.703Z,20.00
2022-11-28T06:58:06.736Z,20.00
2022-11-28T07:00:33.584Z,20.00
2022-11-28T07:03:00.333Z,19.90
2022-11-28T07:05:31.046Z,19.90
2022-11-28T07:07:58.319Z,19.90
2022-11-28T07:10:25.181Z,19.90
2022-11-28T07:12:55.525Z,19.90
2022-11-28T07:15:22.363Z,19.90
2022-11-28T07:17:49.158Z,19.90
2022-11-28T07:20:15.935Z,19.90
2022-11-28T07:22:43.658Z,19.90
2022-11-28T07:25:10.840Z,19.90
2022-11-28T07:27:37.592Z,19.90
2022-11-28T07:30:04.570Z,19.90
2022-11-28T07:32:31.293Z,19.90
2022-11-28T07:34:58.033Z,19.90
2022-11-28T07:37:24.741Z,19.80
2022-11-28T07:39:51.528Z,19.70
2022-11-28T07:42:18.287Z,19.70
2022-11-28T07:45:02.764Z,19.60
2022-11-28T07:47:29.503Z,19.50
2022-11-28T07:49:56.427Z,19.50
2022-11-28T07:52:23.136Z,19.50
2022-11-28T07:54:50.284Z,19.40
2022-11-28T07:57:17.582Z,19.40
2022-11-28T07:59:45.620Z,19.40
2022-11-28T08:02:13.102Z,19.40
2022-11-28T08:04:45.927Z,19.40
2022-11-28T08:07:15.546Z,19.50
2022-11-28T08:09:42.570Z,19.50
2022-11-28T08:12:09.489Z,19.50
2022-11-28T08:14:36.326Z,19.50
2022-11-28T08:17:03.129Z,19.50
2022-11-28T08:19:33.757Z,19.50
2022-11-28T08:22:02.555Z,19.40
2022-11-28T08:24:29.282Z,19.40
2022-11-28T08:26:56.077Z,19.40
2022-11-28T08:29:22.859Z,19.40
2022-11-28T08:31:49.617Z,19.40
2022-11-28T08:34:16.343Z,19.40
2022-11-28T08:36:43.510Z,19.40
2022-11-28T08:39:26.585Z,19.50
2022-11-28T08:41:56.989Z,19.50
2022-11-28T08:44:23.717Z,19.40
2022-11-28T08:46:50.514Z,19.50
2022-11-28T08:49:17.423Z,19.40
2022-11-28T08:51:44.142Z,19.50
2022-11-28T08:54:10.883Z,19.50
2022-11-28T08:56:37.699Z,19.40
2022-11-28T08:59:04.453Z,19.50
2022-11-28T09:01:31.405Z,19.40
2022-11-28T09:03:58.661Z,19.50
2022-11-28T09:06:25.400Z,19.40
2022-11-28T09:08:52.356Z,19.40
2022-11-28T09:11:19.720Z,19.40
2022-11-28T09:13:46.506Z,19.40
2022-11-28T09:16:13.542Z,19.40
2022-11-28T09:18:40.284Z,19.40
2022-11-28T09:21:11.503Z,19.40
2022-11-28T09:23:39.033Z,19.40
2022-11-28T09:26:12.308Z,19.40
2022-11-28T09:28:39.086Z,19.40
2022-11-28T09:31:06.570Z,19.40
2022-11-28T09:33:33.580Z,19.40
2022-11-28T09:36:04.218Z,19.40
2022-11-28T09:38:30.924Z,19.40
2022-11-28T09:40:57.694Z,19.50
2022-11-28T09:43:37.162Z,19.50
2022-11-28T09:46:04.882Z,19.50
2022-11-28T09:48:38.508Z,19.50
2022-11-28T09:51:07.087Z,19.40
2022-11-28T09:53:38.763Z,19.40
2022-11-28T09:56:08.228Z,19.50
2022-11-28T09:58:35.002Z,19.40
2022-11-28T10:01:08.898Z,19.40
2022-11-28T10:03:35.676Z,19.30
2022-11-28T10:06:17.464Z,19.30
2022-11-28T10:09:02.663Z,19.30
2022-11-28T10:11:32.286Z,19.40
2022-11-28T10:14:14.294Z,19.40
2022-11-28T10:16:43.214Z,19.50
2022-11-28T10:19:25.582Z,19.60
2022-11-28T10:21:59.556Z,19.70
2022-11-28T10:24:31.177Z,19.70
2022-11-28T10:26:59.046Z,19.80
2022-11-28T10:29:40.043Z,19.90
2022-11-28T10:32:06.844Z,19.90
2022-11-28T10:34:42.410Z,20.00
2022-11-28T10:37:17.956Z,20.10
2022-11-28T10:39:46.004Z,20.10
2022-11-28T10:42:13.835Z,20.20
2022-11-28T10:44:59.407Z,20.20
2022-11-28T10:47:29.364Z,20.20
2022-11-28T10:49:56.427Z,20.30
2022-11-28T10:52:35.711Z,20.30
2022-11-28T10:55:21.418Z,20.30
2022-11-28T10:57:50.951Z,20.40
2022-11-28T11:00:18.436Z,20.40
2022-11-28T11:02:46.000Z,20.40
2022-11-28T11:05:16.916Z,20.40
2022-11-28T11:07:45.122Z,20.40
2022-11-28T11:10:19.549Z,20.50
2022-11-28T11:12:46.807Z,20.50
2022-11-28T11:15:21.413Z,20.50
2022-11-28T11:17:50.461Z,20.50
2022-11-28T11:20:23.388Z,20.50
2022-11-28T11:22:56.997Z,20.50
2022-11-28T11:25:31.676Z,20.50
2022-11-28T11:28:00.905Z,20.50
2022-11-28T11:30:32.225Z,20.60
2022-11-28T11:32:59.493Z,20.50
2022-11-28T11:35:30.203Z,20.60
2022-11-28T11:38:15.825Z,20.60
2022-11-28T11:40:42.624Z,20.60
2022-11-28T11:43:28.383Z,20.50
2022-11-28T11:46:10.579Z,20.60
2022-11-28T11:48:41.286Z,20.60
2022-11-28T11:51:28.311Z,20.60
2022-11-28T11:54:01.688Z,20.60
2022-11-28T11:56:32.506Z,20.60
2022-11-28T11:58:59.292Z,20.60
2022-11-28T12:01:26.020Z,20.60
2022-11-28T12:03:52.849Z,20.70
2022-11-28T12:06:24.268Z,20.70
2022-11-28T12:08:55.411Z,20.70
2022-11-28T12:11:24.500Z,20.70
2022-11-28T12:13:51.338Z,20.70
2022-11-28T12:16:29.083Z,20.80
2022-11-28T12:19:01.286Z,20.70
2022-11-28T12:21:31.740Z,20.70
2022-11-28T12:24:02.107Z,20.70
2022-11-28T12:26:37.972Z,20.80
2022-11-28T12:29:14.101Z,20.80
2022-11-28T12:31:49.973Z,20.80
2022-11-28T12:34:35.247Z,20.80
2022-11-28T12:37:11.015Z,20.80
2022-11-28T12:39:47.054Z,20.80
2022-11-28T12:42:16.933Z,20.80
2022-11-28T12:45:01.836Z,20.80
2022-11-28T12:48:03.921Z,20.80
2022-11-28T12:50:30.632Z,20.80
2022-11-28T12:53:06.473Z,20.80
2022-11-28T12:55:33.384Z,20.80
2022-11-28T12:58:07.087Z,20.80
2022-11-28T13:00:34.102Z,20.80
2022-11-28T13:03:00.964Z,20.80
2022-11-28T13:05:27.753Z,20.80
2022-11-28T13:08:29.723Z,20.80
2022-11-28T13:11:14.837Z,20.80
2022-11-28T13:13:41.632Z,20.80
2022-11-28T13:16:11.772Z,20.80
2022-11-28T13:18:38.511Z,20.80
2022-11-28T13:21:24.394Z,20.80
2022-11-28T13:23:53.924Z,20.90
2022-11-28T13:26:40.986Z,20.90
2022-11-28T13:29:12.098Z,20.90
2022-11-28T13:31:51.000Z,20.90
2022-11-28T13:34:18.322Z,20.90
2022-11-28T13:39:38.050Z,20.90
2022-11-28T13:42:58.843Z,20.90
2022-11-28T13:45:18.713Z,20.90
2022-11-28T13:47:45.481Z,20.90
2022-11-28T13:50:30.561Z,20.90
2022-11-28T13:53:06.192Z,20.90
2022-11-28T13:55:36.008Z,20.90
2022-11-28T13:58:22.226Z,20.90
2022-11-28T14:01:04.588Z,20.90
2022-11-28T14:03:33.056Z,20.90
2022-11-28T14:06:01.388Z,20.90
2022-11-28T14:08:35.860Z,20.90
2022-11-28T14:11:08.473Z,20.90
2022-11-28T14:13:45.240Z,20.90
2022-11-28T14:16:30.723Z,20.80
2022-11-28T14:19:06.764Z,20.80
2022-11-28T14:21:43.030Z,20.80
2022-11-28T14:24:28.571Z,20.90
2022-11-28T14:27:02.551Z,20.90
2022-11-28T14:29:39.768Z,20.90
2022-11-28T14:32:29.078Z,20.90
2022-11-28T14:34:54.555Z,20.90
2022-11-28T14:37:21.604Z,20.90
2022-11-28T14:39:49.537Z,20.90
2022-11-28T14:42:44.048Z,20.90
2022-11-28T14:45:24.428Z,20.90
2022-11-28T14:48:11.554Z,20.90
2022-11-28T14:50:38.390Z,20.90
2022-11-28T14:53:24.573Z,20.90
2022-11-28T14:55:51.327Z,20.90
2022-11-28T14:58:19.561Z,20.90
2022-11-28T15:00:48.330Z,20.90
2022-11-28T15:03:24.535Z,20.90
2022-11-28T15:05:54.747Z,20.90
2022-11-28T15:08:48.403Z,20.90
2022-11-28T15:11:35.643Z,20.90
2022-11-28T15:14:20.443Z,20.90
2022-11-28T15:16:50.620Z,20.90
2022-11-28T15:19:19.835Z,20.90
2022-11-28T15:21:49.266Z,20.90
2022-11-28T15:24:35.408Z,20.90
2022-11-28T15:27:08.404Z,20.90
2022-11-28T15:29:35.839Z,20.90
2022-11-28T15:32:03.274Z,20.90
2022-11-28T15:34:34.293Z,20.90
2022-11-28T15:37:17.322Z,20.90
2022-11-28T15:39:45.593Z,20.90
2022-11-28T15:42:27.400Z,20.90
2022-11-28T15:44:57.114Z,20.90
2022-11-28T15:47:24.020Z,20.90
2022-11-28T15:50:02.988Z,20.90
2022-11-28T15:52:30.457Z,20.90
2022-11-28T15:54:57.555Z,20.90
2022-11-28T15:57:25.965Z,20.90
2022-11-28T15:59:52.983Z,20.90
2022-11-28T16:02:29.185Z,20.90
2022-11-28T16:04:59.266Z,20.90
2022-11-28T16:07:26.141Z,20.90
2022-11-28T16:09:55.231Z,20.90
2022-11-28T16:12:22.027Z,20.90
2022-11-28T16:14:50.943Z,21.00
2022-11-28T16:17:22.658Z,21.00
2022-11-28T16:19:50.485Z,20.90
2022-11-28T16:22:17.653Z,21.00
2022-11-28T16:24:46.034Z,21.00
2022-11-28T16:27:25.190Z,21.00
2022-11-28T16:29:51.944Z,21.00
2022-11-28T16:32:21.626Z,21.00
2022-11-28T16:34:51.937Z,21.00
2022-11-28T16:37:23.250Z,21.00
2022-11-28T16:40:08.880Z,21.00
2022-11-28T16:42:35.607Z,21.00
2022-11-28T16:45:16.396Z,21.00
2022-11-28T16:47:43.223Z,21.00
2022-11-28T16:50:15.395Z,20.90
2022-11-28T16:52:49.346Z,21.00
2022-11-28T16:55:28.358Z,20.90
2022-11-28T16:58:15.499Z,21.00
2022-11-28T17:00:43.388Z,21.00
2022-11-28T17:03:20.688Z,21.00
2022-11-28T17:05:47.462Z,21.00
2022-11-28T17:08:14.199Z,20.90
2022-11-28T17:10:40.920Z,21.00
2022-11-28T17:13:08.677Z,20.90
2022-11-28T17:15:35.500Z,21.00
2022-11-28T17:18:02.245Z,21.00
2022-11-28T17:20:29.017Z,21.00
2022-11-28T17:22:58.989Z,21.00
2022-11-28T17:25:25.713Z,20.90
2022-11-28T17:27:53.016Z,20.90
2022-11-28T17:30:19.864Z,20.90
2022-11-28T17:32:51.934Z,20.90
2022-11-28T17:35:20.354Z,20.90
2022-11-28T17:37:47.081Z,20.90
2022-11-28T17:40:32.386Z,20.90
2022-11-28T17:42:59.588Z,20.90
2022-11-28T17:45:27.156Z,20.80
2022-11-28T17:47:54.221Z,20.90
2022-11-28T17:50:21.076Z,20.80
2022-11-28T17:52:47.925Z,20.80
2022-11-28T17:55:15.060Z,20.80
2022-11-28T17:57:42.239Z,20.80
2022-11-28T18:00:09.426Z,20.80
2022-11-28T18:02:43.456Z,20.90
2022-11-28T18:05:10.351Z,20.90
2022-11-28T18:07:39.066Z,20.90
2022-11-28T18:10:07.132Z,20.80
2022-11-28T18:12:33.988Z,20.80
2022-11-28T18:15:01.513Z,20.90
2022-11-28T18:17:28.576Z,20.90
2022-11-28T18:19:57.720Z,20.90
2022-11-28T18:22:24.963Z,20.90
2022-11-28T18:24:52.526Z,21.00
2022-11-28T18:27:19.332Z,21.00
2022-11-28T18:29:46.422Z,21.10
2022-11-28T18:32:13.409Z,21.10
2022-11-28T18:34:40.329Z,21.10
2022-11-28T18:37:08.384Z,21.20
2022-11-28T18:39:35.226Z,21.30
2022-11-28T18:42:02.006Z,21.30
2022-11-28T18:44:28.735Z,21.30
2022-11-28T18:46:55.780Z,21.30
2022-11-28T18:49:22.724Z,21.40
2022-11-28T18:51:50.243Z,21.30
2022-11-28T18:54:21.365Z,21.40
2022-11-28T18:56:48.932Z,21.40
2022-11-28T18:59:16.584Z,21.40
2022-11-28T19:01:43.408Z,21.50
2022-11-28T19:04:11.504Z,21.50
2022-11-28T19:06:39.035Z,21.50
2022-11-28T19:09:06.830Z,21.50
2022-11-28T19:11:33.968Z,21.50
2022-11-28T19:14:01.308Z,21.50
2022-11-28T19:16:32.474Z,21.50
2022-11-28T19:18:59.359Z,21.60
2022-11-28T19:21:27.071Z,21.60
2022-11-28T19:23:56.190Z,21.60
2022-11-28T19:26:23.569Z,21.60
2022-11-28T19:28:50.627Z,21.60
2022-11-28T19:31:21.414Z,21.60
2022-11-28T19:34:00.450Z,21.60
2022-11-28T19:36:28.819Z,21.60
2022-11-28T19:38:55.662Z,21.70
2022-11-28T19:41:23.833Z,21.60
2022-11-28T19:43:51.635Z,21.70
2022-11-28T19:46:18.568Z,21.70
2022-11-28T19:48:46.023Z,21.70
2022-11-28T19:51:13.901Z,21.70
2022-11-28T19:53:41.752Z,21.70
2022-11-28T19:56:13.082Z,21.70
2022-11-28T19:58:40.422Z,21.70
2022-11-28T20:01:08.665Z,21.70
2022-11-28T20:03:36.340Z,21.80
2022-11-28T20:06:07.120Z,21.80
2022-11-28T20:08:34.273Z,21.80
2022-11-28T20:11:13.822Z,21.80
2022-11-28T20:13:41.463Z,21.80
2022-11-28T20:16:09.008Z,21.80
2022-11-28T20:18:36.984Z,21.80
2022-11-28T20:21:05.673Z,21.80
2022-11-28T20:23:32.857Z,21.80
2022-11-28T20:26:03.743Z,21.90
2022-11-28T20:28:31.478Z,21.90
2022-11-28T20:30:58.345Z,21.90
2022-11-28T20:33:25.598Z,21.90
2022-11-28T20:35:59.712Z,21.90
2022-11-28T20:38:27.099Z,21.90
2022-11-28T20:40:58.850Z,21.90
2022-11-28T20:43:25.594Z,21.90
2022-11-28T20:45:52.356Z,21.90
2022-11-28T20:48:19.150Z,21.90
2022-11-28T20:50:45.941Z,21.90
2022-11-28T20:53:12.667Z,21.90
2022-11-28T20:55:39.463Z,21.90
2022-11-28T20:58:06.216Z,21.90
2022-11-28T21:00:32.954Z,21.90
2022-11-28T21:02:59.730Z,21.90
2022-11-28T21:05:26.630Z,21.90
2022-11-28T21:07:53.438Z,21.90
2022-11-28T21:10:20.239Z,21.90
2022-11-28T21:12:46.966Z,21.90
2022-11-28T21:15:13.726Z,21.90
2022-11-28T21:17:40.467Z,21.90
2022-11-28T21:20:07.538Z,21.90
2022-11-28T21:22:34.303Z,21.90
2022-11-28T21:25:01.074Z,21.90
2022-11-28T21:27:27.859Z,21.90
2022-11-28T21:29:54.591Z,21.90
2022-11-28T21:32:21.340Z,21.90
2022-11-28T21:34:48.136Z,21.90
2022-11-28T21:37:14.900Z,21.90
2022-11-28T21:39:41.880Z,21.90
2022-11-28T21:42:08.932Z,21.90
2022-11-28T21:44:35.871Z,21.90
2022-11-28T21:47:04.932Z,21.90
2022-11-28T21:49:32.485Z,21.90
2022-11-28T21:51:59.446Z,21.90
2022-11-28T21:54:26.703Z,21.90
2022-11-28T21:56:53.646Z,21.90
2022-11-28T21:59:22.204Z,21.90
2022-11-28T22:01:49.854Z,21.90
2022-11-28T22:04:21.879Z,21.90
2022-11-28T22:06:50.839Z,21.90
2022-11-28T22:09:18.180Z,21.90
2022-11-28T22:11:45.020Z,21.90
2022-11-28T22:14:12.640Z,21.90
2022-11-28T22:16:39.423Z,21.90
2022-11-28T22:19:06.327Z,21.90
2022-11-28T22:21:52.504Z,21.90
2022-11-28T22:24:20.409Z,21.90
2022-11-28T22:26:48.226Z,21.90
2022-11-28T22:29:15.153Z,21.90
2022-11-28T22:31:42.490Z,21.90
2022-11-28T22:34:09.518Z,21.90
2022-11-28T22:36:36.636Z,21.90
2022-11-28T22:39:04.453Z,21.90
2022-11-28T22:41:31.694Z,21.90
2022-11-28T22:44:00.274Z,21.80
2022-11-28T22:46:27.681Z,21.80
2022-11-28T22:48:54.879Z,21.80
2022-11-28T22:51:23.516Z,21.80
2022-11-28T22:53:57.243Z,21.80
2022-11-28T22:56:26.346Z,21.80
2022-11-28T22:58:53.803Z,21.80
2022-11-28T23:01:21.881Z,21.90
2022-11-28T23:03:48.843Z,21.80
2022-11-28T23:06:17.253Z,21.80
2022-11-28T23:08:44.471Z,21.80
2022-11-28T23:11:14.160Z,21.80
2022-11-28T23:13:41.726Z,21.80
2022-11-28T23:16:28.297Z,21.80
2022-11-28T23:18:55.866Z,21.80
2022-11-28T23:21:23.227Z,21.70
2022-11-28T23:23:51.165Z,21.70
2022-11-28T23:26:19.564Z,21.70
2022-11-28T23:28:47.359Z,21.70
2022-11-28T23:31:15.710Z,21.70
2022-11-28T23:33:43.567Z,21.70
2022-11-28T23:36:23.707Z,21.70
2022-11-28T23:38:51.635Z,21.70
2022-11-28T23:41:18.560Z,21.70
2022-11-28T23:43:45.452Z,21.70
2022-11-28T23:46:12.774Z,21.70
2022-11-28T23:48:39.816Z,21.70
2022-11-28T23:51:06.873Z,21.70
2022-11-28T23:53:34.162Z,21.70
2022-11-28T23:56:04.041Z,21.70
2022-11-28T23:58:30.860Z,21.70
